George Town, Malaysia
Current Conditions -  °F | °C
As of 8:00 AM on Thursday 23 Oct 2014 (Local Time) from WMKB Reporting Station
Broken Clouds Broken Clouds  
Wind Chill: 75°   Ceiling: 28000
Heat Index: 75°   Visibility: 4mi
Dew Point: 75°   Wind: 2mph
Humidity: 100%   Direction: 140°SE
Pressure: 29.85"   Gusts: NA
Location:  5.42°N, 100.33°E
Report Text: WMKB 230000Z 14002KT 6000 FEW000 BKN280 24/24 Q1011 NOSIG
Loading
Personal Weather Stations






























Interactive Weather Map
Tropical Storm Tracking
New forecast layout! Learn more

10-Day Weather Forecast

Advertisements
Track Severe Weather on mobile